createdAt,value
2022-11-27T00:01:39.981Z,12.82
2022-11-27T00:04:03.757Z,12.77
2022-11-27T00:06:29.360Z,14.00
2022-11-27T00:08:52.993Z,18.17
2022-11-27T00:11:19.074Z,19.50
2022-11-27T00:13:44.030Z,14.63
2022-11-27T00:16:08.433Z,11.57
2022-11-27T00:18:32.259Z,25.57
2022-11-27T00:20:55.543Z,14.13
2022-11-27T00:23:18.838Z,16.45
2022-11-27T00:25:42.082Z,18.20
2022-11-27T00:28:05.791Z,12.50
2022-11-27T00:30:30.510Z,14.90
2022-11-27T00:32:53.855Z,14.30
2022-11-27T00:35:17.429Z,12.07
2022-11-27T00:37:40.888Z,16.33
2022-11-27T00:40:04.475Z,14.33
2022-11-27T00:42:27.786Z,16.00
2022-11-27T00:44:51.035Z,14.57
2022-11-27T00:47:15.646Z,12.30
2022-11-27T00:49:38.962Z,15.53
2022-11-27T00:52:02.480Z,13.00
2022-11-27T00:54:25.781Z,12.67
2022-11-27T00:56:49.017Z,14.83
2022-11-27T00:59:12.808Z,11.10
2022-11-27T01:01:38.867Z,9.60
2022-11-27T01:04:06.321Z,12.77
2022-11-27T01:06:30.956Z,13.80
2022-11-27T01:08:54.650Z,13.77
2022-11-27T01:11:21.724Z,15.10
2022-11-27T01:13:45.170Z,12.77
2022-11-27T01:16:11.130Z,12.65
2022-11-27T01:18:35.642Z,11.47
2022-11-27T01:21:00.595Z,9.40
2022-11-27T01:23:25.361Z,19.10
2022-11-27T01:25:49.311Z,8.80
2022-11-27T01:28:12.577Z,10.27
2022-11-27T01:30:38.316Z,16.77
2022-11-27T01:33:01.797Z,12.23
2022-11-27T01:35:25.061Z,8.37
2022-11-27T01:37:49.643Z,13.27
2022-11-27T01:40:13.850Z,14.18
2022-11-27T01:42:37.048Z,9.20
2022-11-27T01:45:00.420Z,11.73
2022-11-27T01:47:35.413Z,11.57
2022-11-27T01:50:09.637Z,9.40
2022-11-27T01:52:38.636Z,10.70
2022-11-27T01:55:07.711Z,7.63
2022-11-27T01:57:36.493Z,12.10
2022-11-27T02:00:01.847Z,8.63
2022-11-27T02:02:25.145Z,12.27
2022-11-27T02:04:48.489Z,10.37
2022-11-27T02:07:11.913Z,9.73
2022-11-27T02:09:35.747Z,11.50
2022-11-27T02:12:25.039Z,11.33
2022-11-27T02:14:58.645Z,13.27
2022-11-27T02:17:28.781Z,10.60
2022-11-27T02:20:17.586Z,11.65
2022-11-27T02:22:57.922Z,8.45
2022-11-27T02:25:35.767Z,8.82
2022-11-27T02:28:20.307Z,12.67
2022-11-27T02:30:52.868Z,9.70
2022-11-27T02:33:22.521Z,11.18
2022-11-27T02:35:53.770Z,11.65
2022-11-27T02:38:23.000Z,12.77
2022-11-27T02:40:55.075Z,11.15
2022-11-27T02:43:23.526Z,12.00
2022-11-27T02:45:51.915Z,9.80
2022-11-27T02:48:18.097Z,12.63
2022-11-27T02:50:44.779Z,7.63
2022-11-27T02:53:11.978Z,12.93
2022-11-27T02:55:39.466Z,11.07
2022-11-27T02:58:08.287Z,9.13
2022-11-27T03:00:32.241Z,10.50
2022-11-27T03:03:01.826Z,15.70
2022-11-27T03:05:29.506Z,11.37
2022-11-27T03:07:58.746Z,13.07
2022-11-27T03:10:29.970Z,9.87
2022-11-27T03:12:54.375Z,13.45
2022-11-27T03:15:18.559Z,10.25
2022-11-27T03:17:57.545Z,11.63
2022-11-27T03:20:25.417Z,12.73
2022-11-27T03:22:49.114Z,11.17
2022-11-27T03:25:12.538Z,15.48
2022-11-27T03:27:41.608Z,14.53
2022-11-27T03:30:09.986Z,12.27
2022-11-27T03:32:34.294Z,11.90
2022-11-27T03:34:59.161Z,12.70
2022-11-27T03:37:23.659Z,16.53
2022-11-27T03:39:47.527Z,15.67
2022-11-27T03:42:22.123Z,16.80
2022-11-27T03:44:55.233Z,13.17
2022-11-27T03:47:38.800Z,13.87
2022-11-27T03:50:21.818Z,18.43
2022-11-27T03:52:53.946Z,16.37
2022-11-27T03:55:22.844Z,14.93
2022-11-27T03:57:56.600Z,22.93
2022-11-27T04:00:20.460Z,19.67
2022-11-27T04:02:47.848Z,16.90
2022-11-27T04:05:13.925Z,19.57
2022-11-27T04:07:37.287Z,20.63
2022-11-27T04:10:00.549Z,19.07
2022-11-27T04:12:23.842Z,19.30
2022-11-27T04:14:47.170Z,18.60
2022-11-27T04:17:10.783Z,19.13
2022-11-27T04:19:34.266Z,20.20
2022-11-27T04:21:58.867Z,17.97
2022-11-27T04:24:22.242Z,21.67
2022-11-27T04:26:45.492Z,23.40
2022-11-27T04:29:08.702Z,22.93
2022-11-27T04:31:32.045Z,18.73
2022-11-27T04:33:55.326Z,23.27
2022-11-27T04:36:18.634Z,21.57
2022-11-27T04:38:43.265Z,22.93
2022-11-27T04:41:06.881Z,22.20
2022-11-27T04:43:30.606Z,17.97
2022-11-27T04:45:53.866Z,23.77
2022-11-27T04:48:17.172Z,17.30
2022-11-27T04:50:41.272Z,19.47
2022-11-27T04:53:04.993Z,19.98
2022-11-27T04:55:29.967Z,19.60
2022-11-27T04:57:53.256Z,19.20
2022-11-27T05:00:17.537Z,24.23
2022-11-27T05:02:40.906Z,24.73
2022-11-27T05:05:05.033Z,17.87
2022-11-27T05:07:28.555Z,19.93
2022-11-27T05:09:52.230Z,19.53
2022-11-27T05:12:16.884Z,21.60
2022-11-27T05:14:40.292Z,21.57
2022-11-27T05:17:03.714Z,20.17
2022-11-27T05:19:30.003Z,22.10
2022-11-27T05:21:54.878Z,20.87
2022-11-27T05:24:20.477Z,20.73
2022-11-27T05:26:43.979Z,22.37
2022-11-27T05:29:09.518Z,24.10
2022-11-27T05:31:32.999Z,19.03
2022-11-27T05:33:56.747Z,21.53
2022-11-27T05:36:20.383Z,19.80
2022-11-27T05:38:43.740Z,22.43
2022-11-27T05:41:07.166Z,21.17
2022-11-27T05:43:30.510Z,20.27
2022-11-27T05:45:55.142Z,19.93
2022-11-27T05:48:18.385Z,22.27
2022-11-27T05:50:41.756Z,18.73
2022-11-27T05:53:05.047Z,16.50
2022-11-27T05:55:28.572Z,19.60
2022-11-27T05:57:51.863Z,19.37
2022-11-27T06:00:16.809Z,19.37
2022-11-27T06:02:41.563Z,15.93
2022-11-27T06:05:05.181Z,21.60
2022-11-27T06:07:28.541Z,15.63
2022-11-27T06:09:51.824Z,16.87
2022-11-27T06:12:15.096Z,24.30
2022-11-27T06:14:38.609Z,15.67
2022-11-27T06:17:02.554Z,15.67
2022-11-27T06:19:27.123Z,19.90
2022-11-27T06:21:50.430Z,18.33
2022-11-27T06:24:13.662Z,17.67
2022-11-27T06:26:36.889Z,13.77
2022-11-27T06:29:02.900Z,17.23
2022-11-27T06:31:29.350Z,15.00
2022-11-27T06:33:54.703Z,20.90
2022-11-27T06:36:21.180Z,17.30
2022-11-27T06:38:45.058Z,17.80
2022-11-27T06:41:10.677Z,14.67
2022-11-27T06:43:34.924Z,13.13
2022-11-27T06:45:58.924Z,14.47
2022-11-27T06:48:22.190Z,15.07
2022-11-27T06:50:45.422Z,15.97
2022-11-27T06:53:10.132Z,14.10
2022-11-27T06:55:33.413Z,14.27
2022-11-27T06:57:56.733Z,17.43
2022-11-27T07:00:21.457Z,11.83
2022-11-27T07:02:44.982Z,15.47
2022-11-27T07:05:09.044Z,11.03
2022-11-27T07:07:32.461Z,12.47
2022-11-27T07:09:57.109Z,15.57
2022-11-27T07:12:20.355Z,16.37
2022-11-27T07:14:43.621Z,14.63
2022-11-27T07:17:06.985Z,12.03
2022-11-27T07:19:30.391Z,15.07
2022-11-27T07:21:53.669Z,11.23
2022-11-27T07:24:17.060Z,13.43
2022-11-27T07:26:41.913Z,15.60
2022-11-27T07:29:05.268Z,10.30
2022-11-27T07:31:31.268Z,11.10
2022-11-27T07:33:55.152Z,13.73
2022-11-27T07:36:21.103Z,14.07
2022-11-27T07:38:44.914Z,10.00
2022-11-27T07:41:09.314Z,15.53
2022-11-27T07:43:36.205Z,12.63
2022-11-27T07:46:00.276Z,17.33
2022-11-27T07:48:23.641Z,14.77
2022-11-27T07:50:47.029Z,16.40
2022-11-27T07:53:10.423Z,13.07
2022-11-27T07:55:33.667Z,15.93
2022-11-27T07:57:57.027Z,13.70
2022-11-27T08:00:22.973Z,14.13
2022-11-27T08:02:46.196Z,16.02
2022-11-27T08:05:13.061Z,14.47
2022-11-27T08:07:36.732Z,14.23
2022-11-27T08:10:00.025Z,11.23
2022-11-27T08:12:25.270Z,10.33
2022-11-27T08:14:48.536Z,11.67
2022-11-27T08:17:15.407Z,11.95
2022-11-27T08:19:38.654Z,11.17
2022-11-27T08:22:02.004Z,9.50
2022-11-27T08:24:25.454Z,13.07
2022-11-27T08:26:48.711Z,10.75
2022-11-27T08:29:13.601Z,12.20
2022-11-27T08:31:36.955Z,19.30
2022-11-27T08:34:01.808Z,11.67
2022-11-27T08:36:27.610Z,9.63
2022-11-27T08:38:51.072Z,12.13
2022-11-27T08:41:14.393Z,13.10
2022-11-27T08:43:38.132Z,12.15
2022-11-27T08:46:05.157Z,11.25
2022-11-27T08:48:29.313Z,11.82
2022-11-27T08:50:54.687Z,11.82
2022-11-27T08:53:18.637Z,11.88
2022-11-27T08:55:42.072Z,13.30
2022-11-27T08:58:06.011Z,13.45
2022-11-27T09:00:29.439Z,10.70
2022-11-27T09:02:52.988Z,13.23
2022-11-27T09:05:16.338Z,12.15
2022-11-27T09:07:41.939Z,12.80
2022-11-27T09:10:06.729Z,12.65
2022-11-27T09:12:30.035Z,12.15
2022-11-27T09:14:53.438Z,13.27
2022-11-27T09:17:17.127Z,11.38
2022-11-27T09:19:40.444Z,13.02
2022-11-27T09:22:04.122Z,9.70
2022-11-27T09:24:28.781Z,10.90
2022-11-27T09:26:52.283Z,13.45
2022-11-27T09:29:15.624Z,10.23
2022-11-27T09:31:39.043Z,11.43
2022-11-27T09:34:02.415Z,14.38
2022-11-27T09:36:27.294Z,15.88
2022-11-27T09:38:51.095Z,16.25
2022-11-27T09:41:45.696Z,11.85
2022-11-27T09:44:26.426Z,8.65
2022-11-27T09:46:50.940Z,10.82
2022-11-27T09:49:19.973Z,15.48
2022-11-27T09:51:49.442Z,13.43
2022-11-27T09:54:23.832Z,9.15
2022-11-27T09:56:52.635Z,10.35
2022-11-27T09:59:19.483Z,10.85
2022-11-27T10:01:47.644Z,9.80
2022-11-27T10:04:16.525Z,10.55
2022-11-27T10:07:00.167Z,12.52
2022-11-27T10:09:31.308Z,10.05
2022-11-27T10:12:06.165Z,10.95
2022-11-27T10:14:45.522Z,11.05
2022-11-27T10:17:16.844Z,8.77
2022-11-27T10:19:51.798Z,10.18
2022-11-27T10:22:21.893Z,10.00
2022-11-27T10:24:57.928Z,11.82
2022-11-27T10:27:37.752Z,8.85
2022-11-27T10:30:02.704Z,13.40
2022-11-27T10:35:18.181Z,12.07
2022-11-27T10:37:44.530Z,10.23
2022-11-27T10:40:20.720Z,9.15
2022-11-27T10:42:50.710Z,9.68
2022-11-27T10:45:22.817Z,7.72
2022-11-27T10:47:48.333Z,7.82
2022-11-27T10:50:15.419Z,11.55
2022-11-27T10:52:51.150Z,10.43
2022-11-27T10:55:32.592Z,11.55
2022-11-27T10:58:10.082Z,10.48
2022-11-27T11:00:33.421Z,8.32
2022-11-27T11:03:04.321Z,10.73
2022-11-27T11:08:20.596Z,13.95
2022-11-27T11:10:51.497Z,10.90
2022-11-27T11:13:22.393Z,10.13
2022-11-27T11:15:58.564Z,9.98
2022-11-27T11:18:24.570Z,13.27
2022-11-27T11:20:51.236Z,11.40
2022-11-27T11:23:30.826Z,8.13
2022-11-27T11:25:58.966Z,9.23
2022-11-27T11:28:25.193Z,10.52
2022-11-27T11:30:57.705Z,11.88
2022-11-27T11:33:21.106Z,7.30
2022-11-27T11:35:52.873Z,10.98
2022-11-27T11:38:19.772Z,9.90
2022-11-27T11:40:45.441Z,8.75
2022-11-27T11:43:27.510Z,10.75
2022-11-27T11:45:50.790Z,10.57
2022-11-27T11:48:24.733Z,13.63
2022-11-27T11:50:54.301Z,8.50
2022-11-27T11:53:26.099Z,9.35
2022-11-27T11:56:04.141Z,11.20
2022-11-27T11:58:44.967Z,10.80
2022-11-27T12:01:27.627Z,8.93
2022-11-27T12:04:09.131Z,10.38
2022-11-27T12:06:51.308Z,7.65
2022-11-27T12:09:31.769Z,8.48
2022-11-27T12:12:02.972Z,10.27
2022-11-27T12:14:43.222Z,10.00
2022-11-27T12:17:25.585Z,9.35
2022-11-27T12:20:15.406Z,9.32
2022-11-27T12:23:08.530Z,9.00
2022-11-27T12:25:37.924Z,9.18
2022-11-27T12:28:21.634Z,7.70
2022-11-27T12:30:54.556Z,11.40
2022-11-27T12:33:38.248Z,10.98
2022-11-27T12:36:10.180Z,9.02
2022-11-27T12:38:49.437Z,8.48
2022-11-27T12:41:59.947Z,8.88
2022-11-27T12:44:31.961Z,7.30
2022-11-27T12:47:02.058Z,5.90
2022-11-27T12:49:31.234Z,5.57
2022-11-27T12:52:02.403Z,8.05
2022-11-27T12:54:32.747Z,8.38
2022-11-27T12:57:00.351Z,9.90
2022-11-27T12:59:28.076Z,7.43
2022-11-27T13:02:01.210Z,9.70
2022-11-27T13:04:31.261Z,7.10
2022-11-27T13:07:02.354Z,9.75
2022-11-27T13:09:40.141Z,6.53
2022-11-27T13:12:04.881Z,6.07
2022-11-27T13:14:29.322Z,7.28
2022-11-27T13:16:59.311Z,7.90
2022-11-27T13:19:30.141Z,6.00
2022-11-27T13:21:56.510Z,8.63
2022-11-27T13:24:20.866Z,8.30
2022-11-27T13:26:49.856Z,8.35
2022-11-27T13:29:22.637Z,8.35
2022-11-27T13:31:57.613Z,7.55
2022-11-27T13:34:25.912Z,6.72
2022-11-27T13:36:58.484Z,8.73
2022-11-27T13:39:26.914Z,6.55
2022-11-27T13:42:01.097Z,7.68
2022-11-27T13:44:27.537Z,5.78
2022-11-27T13:46:54.878Z,5.95
2022-11-27T13:49:28.347Z,8.88
2022-11-27T13:51:51.914Z,8.43
2022-11-27T13:54:18.043Z,7.70
2022-11-27T13:56:41.870Z,8.13
2022-11-27T13:59:19.163Z,7.88
2022-11-27T14:01:54.931Z,7.18
2022-11-27T14:04:19.038Z,6.60
2022-11-27T14:06:44.404Z,8.77
2022-11-27T14:09:08.978Z,7.22
2022-11-27T14:11:40.161Z,7.65
2022-11-27T14:14:14.147Z,7.63
2022-11-27T14:16:40.101Z,8.43
2022-11-27T14:19:05.978Z,6.85
2022-11-27T14:21:41.801Z,7.53
2022-11-27T14:24:26.992Z,7.75
2022-11-27T14:26:50.382Z,10.82
2022-11-27T14:29:13.760Z,8.75
2022-11-27T14:31:37.308Z,6.50
2022-11-27T14:34:20.854Z,5.22
2022-11-27T14:36:45.911Z,8.05
2022-11-27T14:39:26.732Z,5.93
2022-11-27T14:41:58.642Z,7.90
2022-11-27T14:44:21.969Z,6.50
2022-11-27T14:46:45.524Z,8.57
2022-11-27T14:49:18.022Z,6.43
2022-11-27T14:51:43.188Z,7.20
2022-11-27T14:54:13.091Z,7.90
2022-11-27T14:56:38.730Z,8.57
2022-11-27T14:59:03.381Z,6.18
2022-11-27T15:01:29.658Z,10.05
2022-11-27T15:04:00.392Z,8.00
2022-11-27T15:06:24.081Z,7.03
2022-11-27T15:09:09.138Z,6.25
2022-11-27T15:11:54.466Z,5.13
2022-11-27T15:14:18.740Z,7.60
2022-11-27T15:16:49.996Z,6.00
2022-11-27T15:19:23.504Z,4.63
2022-11-27T15:21:50.951Z,6.22
2022-11-27T15:24:35.205Z,7.07
2022-11-27T15:27:19.878Z,6.10
2022-11-27T15:30:00.293Z,7.22
2022-11-27T15:32:26.131Z,6.72
2022-11-27T15:34:50.094Z,5.97
2022-11-27T15:37:24.794Z,6.53
2022-11-27T15:39:51.834Z,6.13
2022-11-27T15:42:17.599Z,5.90
2022-11-27T15:44:41.335Z,5.13
2022-11-27T15:47:06.968Z,6.20
2022-11-27T15:49:30.862Z,4.97
2022-11-27T15:51:56.078Z,5.82
2022-11-27T15:54:19.780Z,5.53
2022-11-27T15:56:43.849Z,6.75
2022-11-27T15:59:08.950Z,5.82
2022-11-27T16:01:32.219Z,5.07
2022-11-27T16:03:55.890Z,8.57
2022-11-27T16:06:20.811Z,6.63
2022-11-27T16:08:44.218Z,6.07
2022-11-27T16:11:11.457Z,12.35
2022-11-27T16:13:35.102Z,9.68
2022-11-27T16:16:04.083Z,4.80
2022-11-27T16:18:27.890Z,6.60
2022-11-27T16:20:51.129Z,8.02
2022-11-27T16:23:14.665Z,5.07
2022-11-27T16:25:39.754Z,5.15
2022-11-27T16:28:03.425Z,5.18
2022-11-27T16:30:26.928Z,5.20
2022-11-27T16:32:51.562Z,5.78
2022-11-27T16:35:14.863Z,6.82
2022-11-27T16:37:38.218Z,6.00
2022-11-27T16:40:02.297Z,6.55
2022-11-27T16:42:26.325Z,5.90
2022-11-27T16:44:49.781Z,7.68
2022-11-27T16:47:13.091Z,7.03
2022-11-27T16:49:38.111Z,7.30
2022-11-27T16:52:02.071Z,4.90
2022-11-27T16:54:25.617Z,4.63
2022-11-27T16:56:50.146Z,8.20
2022-11-27T16:59:15.372Z,7.78
2022-11-27T17:01:41.088Z,6.57
2022-11-27T17:04:08.824Z,6.97
2022-11-27T17:06:34.784Z,6.45
2022-11-27T17:08:59.712Z,5.90
2022-11-27T17:11:24.808Z,7.20
2022-11-27T17:13:49.094Z,6.60
2022-11-27T17:16:12.473Z,4.75
2022-11-27T17:18:38.602Z,7.85
2022-11-27T17:21:04.026Z,6.75
2022-11-27T17:23:29.076Z,7.28
2022-11-27T17:25:52.314Z,5.30
2022-11-27T17:28:15.619Z,6.63
2022-11-27T17:30:39.932Z,6.30
2022-11-27T17:33:03.508Z,5.47
2022-11-27T17:35:27.340Z,6.55
2022-11-27T17:37:50.717Z,5.70
2022-11-27T17:40:16.172Z,5.05
2022-11-27T17:42:39.552Z,6.25
2022-11-27T17:45:02.822Z,7.70
2022-11-27T17:47:26.477Z,8.68
2022-11-27T17:49:50.509Z,6.68
2022-11-27T17:52:13.815Z,8.48
2022-11-27T17:54:37.166Z,7.03
2022-11-27T17:57:02.925Z,5.75
2022-11-27T17:59:26.142Z,5.85
2022-11-27T18:01:52.988Z,9.48
2022-11-27T18:04:16.722Z,8.25
2022-11-27T18:06:40.525Z,6.38
2022-11-27T18:09:05.733Z,11.07
2022-11-27T18:11:32.024Z,7.55
2022-11-27T18:13:58.011Z,7.28
2022-11-27T18:16:24.732Z,5.00
2022-11-27T18:18:48.789Z,7.03
2022-11-27T18:21:18.595Z,9.55
2022-11-27T18:24:14.628Z,11.57
2022-11-27T18:29:12.224Z,6.93
2022-11-27T18:31:39.915Z,7.07
2022-11-27T18:34:04.484Z,9.57
2022-11-27T18:36:27.675Z,9.30
2022-11-27T18:38:51.720Z,5.93
2022-11-27T18:41:17.535Z,6.43
2022-11-27T18:43:43.054Z,8.10
2022-11-27T18:46:10.856Z,8.60
2022-11-27T18:48:34.444Z,8.65
2022-11-27T18:51:04.330Z,10.70
2022-11-27T18:53:27.723Z,10.90
2022-11-27T18:55:52.848Z,10.43
2022-11-27T18:58:16.927Z,7.32
2022-11-27T19:00:40.874Z,8.27
2022-11-27T19:03:06.722Z,8.68
2022-11-27T19:05:29.945Z,7.50
2022-11-27T19:07:53.698Z,8.65
2022-11-27T19:10:18.453Z,8.73
2022-11-27T19:12:41.745Z,10.57
2022-11-27T19:15:05.915Z,7.57
2022-11-27T19:17:32.419Z,7.50
2022-11-27T19:19:57.593Z,9.07
2022-11-27T19:22:21.716Z,9.00
2022-11-27T19:24:45.048Z,10.73
2022-11-27T19:27:09.738Z,8.30
2022-11-27T19:29:33.029Z,9.90
2022-11-27T19:31:58.890Z,9.77
2022-11-27T19:34:22.780Z,10.15
2022-11-27T19:36:47.556Z,9.95
2022-11-27T19:39:15.943Z,10.10
2022-11-27T19:41:39.439Z,6.80
2022-11-27T19:44:04.558Z,6.68
2022-11-27T19:46:30.987Z,7.45
2022-11-27T19:48:57.601Z,8.60
2022-11-27T19:51:21.296Z,8.02
2022-11-27T19:53:46.126Z,9.55
2022-11-27T19:56:10.234Z,9.32
2022-11-27T19:58:34.242Z,9.27
2022-11-27T20:01:06.819Z,8.02
2022-11-27T20:03:30.156Z,6.93
2022-11-27T20:06:04.473Z,6.68
2022-11-27T20:08:27.786Z,7.82
2022-11-27T20:10:52.461Z,7.30
2022-11-27T20:13:15.798Z,6.78
2022-11-27T20:15:40.710Z,8.02
2022-11-27T20:18:04.197Z,8.18
2022-11-27T20:20:33.852Z,6.25
2022-11-27T20:22:58.281Z,7.38
2022-11-27T20:25:21.729Z,6.85
2022-11-27T20:27:46.857Z,8.30
2022-11-27T20:30:12.184Z,6.80
2022-11-27T20:32:36.133Z,8.90
2022-11-27T20:34:59.712Z,7.00
2022-11-27T20:37:22.982Z,7.38
2022-11-27T20:39:46.457Z,10.50
2022-11-27T20:42:09.838Z,8.65
2022-11-27T20:44:35.482Z,8.60
2022-11-27T20:46:58.839Z,8.18
2022-11-27T20:49:22.403Z,8.77
2022-11-27T20:51:46.683Z,5.78
2022-11-27T20:54:12.004Z,8.32
2022-11-27T20:56:35.369Z,9.63
2022-11-27T20:59:00.740Z,8.05
2022-11-27T21:01:29.783Z,6.45
2022-11-27T21:03:55.192Z,8.35
2022-11-27T21:06:24.526Z,6.60
2022-11-27T21:08:47.982Z,6.22
2022-11-27T21:11:12.863Z,6.65
2022-11-27T21:13:36.105Z,8.35
2022-11-27T21:15:59.876Z,6.82
2022-11-27T21:18:24.392Z,7.93
2022-11-27T21:20:48.055Z,6.18
2022-11-27T21:23:11.315Z,8.52
2022-11-27T21:25:34.782Z,10.60
2022-11-27T21:27:59.427Z,7.28
2022-11-27T21:30:24.621Z,11.95
2022-11-27T21:32:47.958Z,7.00
2022-11-27T21:35:12.726Z,11.77
2022-11-27T21:37:36.037Z,7.93
2022-11-27T21:39:59.245Z,7.75
2022-11-27T21:42:22.469Z,7.65
2022-11-27T21:44:45.687Z,7.00
2022-11-27T21:47:11.883Z,10.45
2022-11-27T21:49:35.321Z,9.00
2022-11-27T21:51:59.981Z,8.40
2022-11-27T21:54:28.031Z,8.57
2022-11-27T21:56:54.100Z,8.38
2022-11-27T21:59:17.402Z,10.73
2022-11-27T22:01:41.666Z,9.55
2022-11-27T22:04:05.190Z,8.38
2022-11-27T22:06:36.613Z,8.35
2022-11-27T22:09:01.291Z,8.02
2022-11-27T22:11:27.676Z,9.32
2022-11-27T22:13:51.339Z,9.18
2022-11-27T22:16:17.703Z,10.63
2022-11-27T22:18:41.303Z,6.38
2022-11-27T22:21:06.167Z,10.38
2022-11-27T22:23:29.556Z,8.77
2022-11-27T22:25:54.181Z,13.13
2022-11-27T22:28:17.553Z,9.88
2022-11-27T22:30:41.125Z,9.07
2022-11-27T22:33:04.822Z,12.50
2022-11-27T22:35:28.649Z,8.27
2022-11-27T22:37:54.567Z,10.10
2022-11-27T22:40:17.990Z,10.77
2022-11-27T22:42:42.780Z,10.73
2022-11-27T22:45:08.536Z,9.50
2022-11-27T22:47:31.771Z,11.00
2022-11-27T22:49:55.247Z,9.80
2022-11-27T22:52:18.574Z,13.55
2022-11-27T22:54:42.425Z,8.75
2022-11-27T22:57:05.867Z,11.52
2022-11-27T22:59:32.860Z,10.77
2022-11-27T23:01:56.840Z,9.57
2022-11-27T23:04:20.166Z,13.15
2022-11-27T23:06:45.911Z,11.68
2022-11-27T23:09:10.419Z,11.48
2022-11-27T23:11:33.679Z,10.70
2022-11-27T23:13:58.997Z,11.52
2022-11-27T23:16:24.093Z,12.60
2022-11-27T23:18:47.433Z,11.35
2022-11-27T23:21:13.743Z,10.40
2022-11-27T23:23:37.051Z,11.70
2022-11-27T23:26:04.928Z,10.38
2022-11-27T23:28:28.243Z,10.85
2022-11-27T23:31:08.663Z,11.70
2022-11-27T23:33:36.644Z,10.77
2022-11-27T23:36:00.356Z,9.75
2022-11-27T23:38:23.697Z,10.68
2022-11-27T23:40:47.146Z,10.73
2022-11-27T23:43:10.457Z,11.60
2022-11-27T23:45:33.762Z,12.88
2022-11-27T23:47:57.216Z,12.15
2022-11-27T23:50:21.905Z,11.70
2022-11-27T23:52:45.217Z,10.13
2022-11-27T23:55:09.315Z,10.13
2022-11-27T23:57:32.586Z,12.38
2022-11-27T23:59:55.838Z,12.05
